Flight Track Log - Related Links

Times and Time Zones

All times are in EDT time to prevent confusion due to time zone crossing. See the XOJ552 flight status page for this flight to view local times or setup timezone preferences in your user account.

Time Position Orientation Groundspeed Altitude Reporting Facility
EDT Latitude Longitude Course Direction KTS MPH feet Rate Location/Type
Thu 07:03:27 PM 39.9536 -105.1344 344° North 204 235 8,400  Level Denver Center
Thu 07:04:29 PM 40.0028 -105.1811 324° Northwest 234 269 13,200 3,726 Climbing Denver Center
Thu 07:05:31 PM 39.9800 -105.2772 253° West 276 318 16,100 2,758 Climbing Denver Center
Thu 07:06:33 PM 39.9369 -105.4044 246° West 356 410 18,900 2,903 Climbing Denver Center
Thu 07:07:35 PM 39.8969 -105.5289 247° West 374 430 22,100 2,855 Climbing Denver Center
Thu 07:08:37 PM 39.8536 -105.6586 247° West 395 455 24,800 2,565 Climbing Denver Center
Thu 07:09:39 PM 39.8086 -105.7931 246° West 408 470 27,400 2,352 Climbing Denver Center
Thu 07:10:42 PM 39.7647 -105.9292 247° West 410 472 29,700 2,016 Climbing Denver Center
Thu 07:11:44 PM 39.7056 -106.1039 246° West 438 504 31,600 1,645 Climbing Denver Center
Thu 07:12:46 PM 39.6639 -106.2311 247° West 449 517 33,100 1,694 Climbing Denver Center
Thu 07:13:48 PM 39.6036 -106.4128 247° West 457 526 35,100 1,839 Climbing Denver Center
Thu 07:14:50 PM 39.5553 -106.5542 246° West 453 521 36,900 1,935 Climbing Denver Center
Thu 07:15:52 PM 39.4997 -106.7178 246° West 444 511 39,100 1,887 Climbing Denver Center
Thu 07:16:54 PM 39.4522 -106.8503 245° Southwest 430 495 40,800 1,306 Climbing Denver Center
Thu 07:17:56 PM 39.4081 -107.0114 251° West 426 490 41,800 871 Climbing Denver Center
Thu 07:18:58 PM 39.3742 -107.1533 253° West 431 496 42,600 435 Climbing Denver Center
Thu 07:20:00 PM 39.3225 -107.3169 248° West 442 509 42,700 48 Climbing Denver Center
Thu 07:21:02 PM 39.2633 -107.4558 241° Southwest 456 525 42,700  Level Denver Center
Thu 07:22:04 PM 39.2044 -107.5928 241° Southwest 455 524 42,700  Level Denver Center
Thu 07:23:06 PM 39.1353 -107.7517 241° Southwest 455 524 42,700  Level Denver Center
Thu 07:24:08 PM 39.0772 -107.8850 241° Southwest 447 514 42,700 145 Level Denver Center
Thu 07:25:10 PM 39.0094 -108.0400 241° Southwest 443 510 43,000 145 Climbing Denver Center
Thu 07:26:12 PM 38.9514 -108.1725 241° Southwest 443 510 43,000  Level Denver Center
Thu 07:27:15 PM 38.8831 -108.3264 240° Southwest 443 510 43,000  Level Denver Center
Thu 07:28:17 PM 38.8244 -108.4594 241° Southwest 445 512 43,000  Level Denver Center
Thu 07:29:19 PM 38.7569 -108.6122 241° Southwest 441 507 43,000  Level Denver Center
Thu 07:30:21 PM 38.6981 -108.7425 240° Southwest 439 505 43,000  Level Denver Center
Thu 07:31:23 PM 38.6303 -108.8958 241° Southwest 441 507 43,000  Level Denver Center
Thu 07:32:25 PM 38.5708 -109.0258 240° Southwest 441 507 43,000  Level Denver Center
Thu 07:33:27 PM 38.5125 -109.1547 240° Southwest 437 503 43,000  Level Denver Center
Thu 07:34:29 PM 38.4428 -109.3075 240° Southwest 443 510 43,000  Level Denver Center
Thu 07:35:31 PM 38.3836 -109.4369 240° Southwest 442 509 43,000  Level Denver Center
Thu 07:36:33 PM 38.3147 -109.5872 240° Southwest 440 506 43,000  Level Denver Center
Thu 07:37:35 PM 38.2561 -109.7147 240° Southwest 435 501 43,000  Level Denver Center
Thu 07:38:37 PM 38.1858 -109.8656 239° Southwest 443 510 43,000  Level Denver Center
Thu 07:39:39 PM 38.1261 -109.9939 239° Southwest 441 507 43,000  Level Denver Center
Thu 07:40:41 PM 38.0556 -110.1431 239° Southwest 440 506 43,000  Level Denver Center
Thu 07:41:43 PM 37.9933 -110.2758 239° Southwest 442 509 43,000  Level Denver Center
Thu 07:42:46 PM 37.9342 -110.4039 240° Southwest 440 506 43,000  Level Denver Center
Thu 07:43:48 PM 37.8656 -110.5481 239° Southwest 440 506 43,000  Level Denver Center
Thu 07:44:50 PM 37.7956 -110.6936 239° Southwest 440 506 43,000  Level Denver Center
Thu 07:45:52 PM 37.7325 -110.8261 239° Southwest 440 506 43,000  Level Denver Center
Thu 07:46:54 PM 37.6686 -110.9581 239° Southwest 441 507 43,000  Level Denver Center
Thu 07:47:56 PM 37.6064 -111.0897 239° Southwest 438 504 43,000  Level Denver Center
Thu 07:48:58 PM 37.5419 -111.2211 238° Southwest 441 507 43,000  Level Denver Center
Thu 07:50:00 PM 37.4789 -111.3533 239° Southwest 440 506 43,000  Level Denver Center
Thu 07:51:02 PM 37.4019 -111.5094 238° Southwest 438 504 43,000  Level Denver Center
Thu 07:52:04 PM 37.3383 -111.6403 239° Southwest 438 504 43,000  Level Denver Center
Thu 07:53:06 PM 37.2750 -111.7697 238° Southwest 435 501 43,000  Level Denver Center
Thu 07:54:19 PM 37.1989 -111.9231 238° Southwest 434 499 43,000  Level Los Center
Thu 07:56:12 PM 37.0825 -112.1569 238° Southwest 436 502 43,000  Level Denver Center
Thu 07:57:14 PM 37.0183 -112.2875 238° Southwest 438 504 43,000  Level Denver Center
Thu 07:58:27 PM 36.9400 -112.4419 238° Southwest 439 505 43,000  Level Los Center
Thu 07:59:29 PM 36.8619 -112.5961 238° Southwest 436 502 43,000  Level Los Center
Thu 08:00:31 PM 36.7969 -112.7256 238° Southwest 438 504 43,000  Level Los Center
Thu 08:01:34 PM 36.7314 -112.8525 237° Southwest 436 502 43,000  Level Los Center
Thu 08:02:36 PM 36.6667 -112.9814 238° Southwest 437 503 43,000  Level Los Center
Thu 08:03:38 PM 36.6011 -113.1086 237° Southwest 438 504 43,000  Level Los Center
Thu 08:04:40 PM 36.5350 -113.2353 237° Southwest 437 503 43,000  Level Los Center
Thu 08:05:42 PM 36.4769 -113.3475 237° Southwest 438 504 43,000  Level Los Center
Thu 08:06:44 PM 36.3994 -113.4997 238° Southwest 436 502 43,000  Level Los Center
Thu 08:07:46 PM 36.3211 -113.6503 237° Southwest 434 499 43,000  Level Los Center
Thu 08:08:49 PM 36.2556 -113.7767 237° Southwest 434 499 43,000  Level Los Center
Thu 08:09:51 PM 36.1894 -113.9025 237° Southwest 434 499 43,000  Level Los Center
Thu 08:10:53 PM 36.1228 -114.0281 237° Southwest 437 503 43,000 -48 Level Los Center
Thu 08:11:55 PM 36.0567 -114.1544 237° Southwest 436 502 42,900 -677 Descending Los Center
Thu 08:12:57 PM 35.9900 -114.2808 237° Southwest 437 503 41,600 -1,355 Descending Los Center
Thu 08:13:59 PM 35.9094 -114.4303 236° Southwest 435 501 40,100 -1,306 Descending Los Center
Thu 08:15:01 PM 35.8458 -114.5500 237° Southwest 423 487 38,900 -1,016 Descending Los Center
Thu 08:16:03 PM 35.7811 -114.6725 237° Southwest 423 487 38,000 -432 Descending Los Center
Thu 08:17:06 PM 35.7131 -114.8014 237° Southwest 442 509 38,000 -288 Level Los Center
Thu 08:18:08 PM 35.6436 -114.9306 237° Southwest 450 518 37,400 -774 Descending Los Center
Thu 08:19:10 PM 35.5769 -115.0531 236° Southwest 434 499 36,400 -968 Descending Los Center
Thu 08:20:12 PM 35.5100 -115.1750 236° Southwest 430 495 35,400 -1,065 Descending Los Center
Thu 08:21:14 PM 35.4303 -115.3222 236° Southwest 430 495 34,200 -1,113 Descending Los Center
Thu 08:22:16 PM 35.3597 -115.4506 236° Southwest 447 514 33,100 -1,065 Descending Los Center
Thu 08:23:18 PM 35.2919 -115.5761 237° Southwest 463 533 32,000 -1,104 Descending Los Center
Thu 08:24:21 PM 35.2211 -115.7044 236° Southwest 457 526 30,800 -1,104 Descending Los Center
Thu 08:25:23 PM 35.1514 -115.8311 236° Southwest 452 520 29,700 -1,210 Descending Los Center
Thu 08:26:25 PM 35.0683 -115.9800 236° Southwest 444 511 28,300 -1,210 Descending Los Center
Thu 08:27:27 PM 34.9986 -116.1042 236° Southwest 442 509 27,200 -1,065 Descending Los Center
Thu 08:28:29 PM 34.9289 -116.2258 235° Southwest 440 506 26,100 -1,065 Descending Los Center
Thu 08:29:31 PM 34.8611 -116.3467 236° Southwest 435 501 25,000 -1,065 Descending Los Center
Thu 08:30:33 PM 34.7964 -116.4708 238° Southwest 433 498 23,900 -1,016 Descending Los Center
Thu 08:31:35 PM 34.7833 -116.6092 263° West 416 479 22,900 -1,008 Descending Los Center
Thu 08:32:38 PM 34.7681 -116.7681 263° West 396 456 21,800 -960 Descending Los Center
Thu 08:33:40 PM 34.7550 -116.8961 263° West 385 443 20,900 -871 Descending Los Center
Thu 08:34:42 PM 34.7417 -117.0272 263° West 388 447 20,000 -484 Descending Los Center
Thu 08:35:44 PM 34.7272 -117.1619 263° West 400 460 19,900 -581 Descending Los Center
Thu 08:36:46 PM 34.7133 -117.2942 263° West 395 455 18,800 -1,065 Descending Los Center
Thu 08:37:48 PM 34.7008 -117.4219 263° West 383 441 17,700 -1,065 Descending Los Center
Thu 08:38:50 PM 34.6872 -117.5497 263° West 379 436 16,600 -1,248 Descending Los Center
Thu 08:39:53 PM 34.6661 -117.7008 260° West 378 435 15,100 -1,392 Descending Los Center
Thu 08:40:55 PM 34.6475 -117.8275 260° West 379 436 13,700 -1,306 Descending Los Center
Thu 08:41:57 PM 34.6294 -117.9497 260° West 368 423 12,400 -1,258 Descending Los Center
Thu 08:42:59 PM 34.6106 -118.0689 259° West 360 414 11,100 -1,210 Descending Los Center
Thu 08:44:01 PM 34.5947 -118.1825 260° West 312 359 9,900 -1,065 Descending Los Center
Thu 08:45:03 PM 34.5792 -118.2769 259° West 292 336 8,900 -919 Descending Los Center
Thu 08:46:05 PM 34.5672 -118.3525 259° West 289 333 8,000 -528 Descending Los Center
Thu 08:47:08 PM 34.5394 -118.4631 253° West 293 337 7,800 -864 Descending Los Center
Thu 08:48:10 PM 34.4553 -118.4997 200° South 275 316 6,200 -1,016 Descending Los Center
Thu 08:49:12 PM 34.3875 -118.5097 187° South 246 283 5,700 -919 Descending Los Center
Thu 08:50:14 PM 34.3319 -118.5033 175° South 215 247 4,300 -1,706 Descending Los Center
Thu 08:50:54 PM 34.3000 -118.5000 175° South 163 188 2,800 -1,380 Descending Southern TRACON
Thu 08:51:54 PM 34.2500 -118.5000 180° South 131 151 2,000 -850 Descending Southern TRACON
Thu 08:52:54 PM 34.2167 -118.4833 158° South 120 138 1,100 -900 Descending Southern TRACON
Thu 08:55:00 PM 34.2098 -118.4900 180° South  Level Estimated

Login

Don't have an account? Register now (free) for customized features, flight alerts, and more!